sensor_id;sensor_type;location;lat;lon;timestamp;P1;durP1;ratioP1;P2;durP2;ratioP2
6438;SDS011;3252;52.540;13.290;2023-08-31T00:00:08;17.80;;;11.20;;
6438;SDS011;3252;52.540;13.290;2023-08-31T00:02:12;13.20;;;6.63;;
6438;SDS011;3252;52.540;13.290;2023-08-31T00:04:14;4.67;;;2.37;;
6438;SDS011;3252;52.540;13.290;2023-08-31T00:06:16;3.20;;;2.30;;
6438;SDS011;3252;52.540;13.290;2023-08-31T00:08:19;3.30;;;2.10;;
6438;SDS011;3252;52.540;13.290;2023-08-31T00:10:22;2.40;;;2.20;;
6438;SDS011;3252;52.540;13.290;2023-08-31T00:12:24;4.63;;;2.80;;
6438;SDS011;3252;52.540;13.290;2023-08-31T00:14:27;4.43;;;2.20;;
6438;SDS011;3252;52.540;13.290;2023-08-31T00:16:29;2.47;;;2.20;;
6438;SDS011;3252;52.540;13.290;2023-08-31T00:18:33;4.10;;;2.30;;
6438;SDS011;3252;52.540;13.290;2023-08-31T00:20:36;3.60;;;2.30;;
6438;SDS011;3252;52.540;13.290;2023-08-31T00:22:38;2.80;;;2.30;;
6438;SDS011;3252;52.540;13.290;2023-08-31T00:24:42;3.00;;;2.27;;
6438;SDS011;3252;52.540;13.290;2023-08-31T00:26:44;3.37;;;2.20;;
6438;SDS011;3252;52.540;13.290;2023-08-31T00:28:46;6.63;;;2.47;;
6438;SDS011;3252;52.540;13.290;2023-08-31T00:30:49;2.87;;;2.10;;
6438;SDS011;3252;52.540;13.290;2023-08-31T00:32:52;7.57;;;2.20;;
6438;SDS011;3252;52.540;13.290;2023-08-31T00:34:55;6.67;;;2.37;;
6438;SDS011;3252;52.540;13.290;2023-08-31T00:36:58;4.87;;;2.33;;
6438;SDS011;3252;52.540;13.290;2023-08-31T00:39:02;4.03;;;2.30;;
6438;SDS011;3252;52.540;13.290;2023-08-31T00:41:07;5.43;;;2.40;;
6438;SDS011;3252;52.540;13.290;2023-08-31T00:43:09;3.87;;;2.40;;
6438;SDS011;3252;52.540;13.290;2023-08-31T00:45:11;4.70;;;2.50;;
6438;SDS011;3252;52.540;13.290;2023-08-31T00:47:15;3.00;;;2.50;;
6438;SDS011;3252;52.540;13.290;2023-08-31T00:49:18;3.83;;;2.57;;
6438;SDS011;3252;52.540;13.290;2023-08-31T00:51:20;3.33;;;2.60;;
6438;SDS011;3252;52.540;13.290;2023-08-31T00:53:23;3.53;;;2.90;;
6438;SDS011;3252;52.540;13.290;2023-08-31T00:55:25;4.47;;;3.33;;
6438;SDS011;3252;52.540;13.290;2023-08-31T00:57:29;4.53;;;2.80;;
6438;SDS011;3252;52.540;13.290;2023-08-31T00:59:31;4.80;;;2.83;;
6438;SDS011;3252;52.540;13.290;2023-08-31T01:01:34;4.63;;;2.43;;
6438;SDS011;3252;52.540;13.290;2023-08-31T01:03:43;3.70;;;2.80;;
6438;SDS011;3252;52.540;13.290;2023-08-31T01:05:52;5.30;;;2.60;;
6438;SDS011;3252;52.540;13.290;2023-08-31T01:08:03;4.63;;;2.60;;
6438;SDS011;3252;52.540;13.290;2023-08-31T01:10:16;4.83;;;3.03;;
6438;SDS011;3252;52.540;13.290;2023-08-31T01:12:25;3.67;;;2.90;;
6438;SDS011;3252;52.540;13.290;2023-08-31T01:14:38;4.23;;;3.23;;
6438;SDS011;3252;52.540;13.290;2023-08-31T01:16:44;4.83;;;3.20;;
6438;SDS011;3252;52.540;13.290;2023-08-31T01:18:49;6.37;;;3.50;;
6438;SDS011;3252;52.540;13.290;2023-08-31T01:20:55;4.20;;;3.50;;
6438;SDS011;3252;52.540;13.290;2023-08-31T01:23:04;4.53;;;3.43;;
6438;SDS011;3252;52.540;13.290;2023-08-31T01:25:12;5.07;;;3.73;;
6438;SDS011;3252;52.540;13.290;2023-08-31T01:27:15;4.80;;;3.40;;
6438;SDS011;3252;52.540;13.290;2023-08-31T01:29:19;6.70;;;3.17;;
6438;SDS011;3252;52.540;13.290;2023-08-31T01:31:20;3.40;;;3.00;;
6438;SDS011;3252;52.540;13.290;2023-08-31T01:33:22;4.47;;;3.00;;
6438;SDS011;3252;52.540;13.290;2023-08-31T01:35:25;3.67;;;2.97;;
6438;SDS011;3252;52.540;13.290;2023-08-31T01:37:29;3.23;;;2.70;;
6438;SDS011;3252;52.540;13.290;2023-08-31T01:39:45;5.20;;;2.57;;
6438;SDS011;3252;52.540;13.290;2023-08-31T01:41:55;2.47;;;2.27;;
6438;SDS011;3252;52.540;13.290;2023-08-31T01:43:58;2.60;;;2.27;;
6438;SDS011;3252;52.540;13.290;2023-08-31T01:46:02;3.60;;;2.20;;
6438;SDS011;3252;52.540;13.290;2023-08-31T01:48:07;3.73;;;2.13;;
6438;SDS011;3252;52.540;13.290;2023-08-31T01:50:13;3.33;;;2.23;;
6438;SDS011;3252;52.540;13.290;2023-08-31T01:52:15;2.40;;;1.80;;
6438;SDS011;3252;52.540;13.290;2023-08-31T01:54:17;2.47;;;1.63;;
6438;SDS011;3252;52.540;13.290;2023-08-31T01:56:19;3.13;;;1.73;;
6438;SDS011;3252;52.540;13.290;2023-08-31T01:58:25;2.13;;;1.70;;
6438;SDS011;3252;52.540;13.290;2023-08-31T02:00:27;2.47;;;1.63;;
6438;SDS011;3252;52.540;13.290;2023-08-31T02:02:30;2.00;;;1.80;;
6438;SDS011;3252;52.540;13.290;2023-08-31T02:04:32;1.93;;;1.50;;
6438;SDS011;3252;52.540;13.290;2023-08-31T02:06:33;6.50;;;1.60;;
6438;SDS011;3252;52.540;13.290;2023-08-31T02:08:36;2.13;;;1.53;;
6438;SDS011;3252;52.540;13.290;2023-08-31T02:10:38;4.13;;;1.90;;
6438;SDS011;3252;52.540;13.290;2023-08-31T02:12:40;2.07;;;1.57;;
6438;SDS011;3252;52.540;13.290;2023-08-31T02:14:43;2.50;;;2.07;;
6438;SDS011;3252;52.540;13.290;2023-08-31T02:16:46;2.60;;;1.77;;
6438;SDS011;3252;52.540;13.290;2023-08-31T02:18:48;2.13;;;1.67;;
6438;SDS011;3252;52.540;13.290;2023-08-31T02:20:51;2.00;;;1.60;;
6438;SDS011;3252;52.540;13.290;2023-08-31T02:22:54;2.77;;;1.80;;
6438;SDS011;3252;52.540;13.290;2023-08-31T02:24:56;2.37;;;1.97;;
6438;SDS011;3252;52.540;13.290;2023-08-31T02:26:57;2.50;;;1.90;;
6438;SDS011;3252;52.540;13.290;2023-08-31T02:29:00;3.10;;;2.20;;
6438;SDS011;3252;52.540;13.290;2023-08-31T02:31:04;2.23;;;2.03;;
6438;SDS011;3252;52.540;13.290;2023-08-31T02:33:06;2.90;;;1.87;;
6438;SDS011;3252;52.540;13.290;2023-08-31T02:35:09;3.67;;;1.90;;
6438;SDS011;3252;52.540;13.290;2023-08-31T02:37:12;1.90;;;1.70;;
6438;SDS011;3252;52.540;13.290;2023-08-31T02:39:14;2.47;;;1.90;;
6438;SDS011;3252;52.540;13.290;2023-08-31T02:41:17;4.73;;;2.00;;
6438;SDS011;3252;52.540;13.290;2023-08-31T02:43:19;2.10;;;1.80;;
6438;SDS011;3252;52.540;13.290;2023-08-31T02:45:23;1.97;;;1.77;;
6438;SDS011;3252;52.540;13.290;2023-08-31T02:47:27;2.30;;;1.87;;
6438;SDS011;3252;52.540;13.290;2023-08-31T02:49:28;4.20;;;1.90;;
6438;SDS011;3252;52.540;13.290;2023-08-31T02:51:30;3.90;;;2.23;;
6438;SDS011;3252;52.540;13.290;2023-08-31T02:53:32;3.17;;;2.17;;
6438;SDS011;3252;52.540;13.290;2023-08-31T02:55:34;2.60;;;2.03;;
6438;SDS011;3252;52.540;13.290;2023-08-31T02:57:35;3.00;;;2.00;;
6438;SDS011;3252;52.540;13.290;2023-08-31T02:59:38;2.43;;;2.10;;
6438;SDS011;3252;52.540;13.290;2023-08-31T03:01:40;2.47;;;2.00;;
6438;SDS011;3252;52.540;13.290;2023-08-31T03:03:48;2.63;;;2.03;;
6438;SDS011;3252;52.540;13.290;2023-08-31T03:05:54;2.23;;;2.03;;
6438;SDS011;3252;52.540;13.290;2023-08-31T03:07:57;4.83;;;2.20;;
6438;SDS011;3252;52.540;13.290;2023-08-31T03:09:58;4.83;;;2.37;;
6438;SDS011;3252;52.540;13.290;2023-08-31T03:12:03;4.70;;;2.00;;
6438;SDS011;3252;52.540;13.290;2023-08-31T03:14:05;2.53;;;2.03;;
6438;SDS011;3252;52.540;13.290;2023-08-31T03:16:09;3.50;;;2.27;;
6438;SDS011;3252;52.540;13.290;2023-08-31T03:18:12;4.07;;;2.10;;
6438;SDS011;3252;52.540;13.290;2023-08-31T03:20:15;2.97;;;2.27;;
6438;SDS011;3252;52.540;13.290;2023-08-31T03:22:18;2.90;;;2.00;;
6438;SDS011;3252;52.540;13.290;2023-08-31T03:24:20;2.63;;;2.13;;
6438;SDS011;3252;52.540;13.290;2023-08-31T03:26:23;3.03;;;2.10;;
6438;SDS011;3252;52.540;13.290;2023-08-31T03:28:25;4.47;;;2.00;;
6438;SDS011;3252;52.540;13.290;2023-08-31T03:30:28;2.90;;;1.90;;
6438;SDS011;3252;52.540;13.290;2023-08-31T03:32:31;3.13;;;2.10;;
6438;SDS011;3252;52.540;13.290;2023-08-31T03:34:32;3.47;;;1.70;;
6438;SDS011;3252;52.540;13.290;2023-08-31T03:36:36;2.60;;;2.03;;
6438;SDS011;3252;52.540;13.290;2023-08-31T03:38:38;3.60;;;2.20;;
6438;SDS011;3252;52.540;13.290;2023-08-31T03:40:41;2.30;;;2.00;;
6438;SDS011;3252;52.540;13.290;2023-08-31T03:42:42;2.77;;;2.23;;
6438;SDS011;3252;52.540;13.290;2023-08-31T03:44:44;3.07;;;2.43;;
6438;SDS011;3252;52.540;13.290;2023-08-31T03:46:46;3.03;;;2.13;;
6438;SDS011;3252;52.540;13.290;2023-08-31T03:48:48;4.17;;;2.33;;
6438;SDS011;3252;52.540;13.290;2023-08-31T03:50:50;3.23;;;2.37;;
6438;SDS011;3252;52.540;13.290;2023-08-31T03:52:54;3.47;;;2.33;;
6438;SDS011;3252;52.540;13.290;2023-08-31T03:54:57;4.50;;;2.80;;
6438;SDS011;3252;52.540;13.290;2023-08-31T03:56:59;2.83;;;2.50;;
6438;SDS011;3252;52.540;13.290;2023-08-31T03:59:02;4.00;;;2.77;;
6438;SDS011;3252;52.540;13.290;2023-08-31T04:01:05;4.50;;;3.23;;
6438;SDS011;3252;52.540;13.290;2023-08-31T04:03:08;3.70;;;2.80;;
6438;SDS011;3252;52.540;13.290;2023-08-31T04:05:11;4.70;;;2.80;;
6438;SDS011;3252;52.540;13.290;2023-08-31T04:07:17;3.50;;;3.00;;
6438;SDS011;3252;52.540;13.290;2023-08-31T04:09:20;3.70;;;3.10;;
6438;SDS011;3252;52.540;13.290;2023-08-31T04:11:24;3.50;;;2.57;;
6438;SDS011;3252;52.540;13.290;2023-08-31T04:13:27;6.50;;;3.17;;
6438;SDS011;3252;52.540;13.290;2023-08-31T04:15:29;3.30;;;3.00;;
6438;SDS011;3252;52.540;13.290;2023-08-31T04:17:32;4.03;;;3.37;;
6438;SDS011;3252;52.540;13.290;2023-08-31T04:19:34;4.37;;;3.30;;
6438;SDS011;3252;52.540;13.290;2023-08-31T04:21:37;5.40;;;3.40;;
6438;SDS011;3252;52.540;13.290;2023-08-31T04:23:39;4.97;;;3.03;;
6438;SDS011;3252;52.540;13.290;2023-08-31T04:25:43;3.97;;;3.57;;
6438;SDS011;3252;52.540;13.290;2023-08-31T04:27:46;7.87;;;3.70;;
6438;SDS011;3252;52.540;13.290;2023-08-31T04:29:47;4.50;;;3.50;;
6438;SDS011;3252;52.540;13.290;2023-08-31T04:31:49;5.97;;;3.80;;
6438;SDS011;3252;52.540;13.290;2023-08-31T04:33:51;5.13;;;3.90;;
6438;SDS011;3252;52.540;13.290;2023-08-31T04:35:54;6.23;;;3.77;;
6438;SDS011;3252;52.540;13.290;2023-08-31T04:37:56;5.27;;;4.07;;
6438;SDS011;3252;52.540;13.290;2023-08-31T04:39:58;6.43;;;3.97;;
6438;SDS011;3252;52.540;13.290;2023-08-31T04:42:01;4.83;;;4.00;;
6438;SDS011;3252;52.540;13.290;2023-08-31T04:44:04;6.00;;;5.10;;
6438;SDS011;3252;52.540;13.290;2023-08-31T04:46:05;7.57;;;6.73;;
6438;SDS011;3252;52.540;13.290;2023-08-31T04:48:07;7.93;;;6.20;;
6438;SDS011;3252;52.540;13.290;2023-08-31T04:50:09;10.17;;;5.03;;
6438;SDS011;3252;52.540;13.290;2023-08-31T04:52:11;7.13;;;5.60;;
6438;SDS011;3252;52.540;13.290;2023-08-31T04:54:13;13.47;;;9.93;;
6438;SDS011;3252;52.540;13.290;2023-08-31T04:56:15;8.60;;;6.00;;
6438;SDS011;3252;52.540;13.290;2023-08-31T04:58:19;6.33;;;5.00;;
6438;SDS011;3252;52.540;13.290;2023-08-31T05:00:21;7.57;;;5.13;;
6438;SDS011;3252;52.540;13.290;2023-08-31T05:02:23;8.00;;;4.73;;
6438;SDS011;3252;52.540;13.290;2023-08-31T05:04:27;6.17;;;5.17;;
6438;SDS011;3252;52.540;13.290;2023-08-31T05:06:31;5.67;;;5.07;;
6438;SDS011;3252;52.540;13.290;2023-08-31T05:08:33;5.50;;;4.97;;
6438;SDS011;3252;52.540;13.290;2023-08-31T05:10:35;5.87;;;5.00;;
6438;SDS011;3252;52.540;13.290;2023-08-31T05:12:37;6.57;;;5.57;;
6438;SDS011;3252;52.540;13.290;2023-08-31T05:14:41;17.00;;;9.90;;
6438;SDS011;3252;52.540;13.290;2023-08-31T05:16:43;9.83;;;7.93;;
6438;SDS011;3252;52.540;13.290;2023-08-31T05:18:46;7.37;;;5.77;;
6438;SDS011;3252;52.540;13.290;2023-08-31T05:20:49;9.93;;;6.07;;
6438;SDS011;3252;52.540;13.290;2023-08-31T05:22:51;7.78;;;6.00;;
6438;SDS011;3252;52.540;13.290;2023-08-31T05:24:54;6.57;;;5.10;;
6438;SDS011;3252;52.540;13.290;2023-08-31T05:26:56;7.70;;;5.17;;
6438;SDS011;3252;52.540;13.290;2023-08-31T05:28:59;6.87;;;4.77;;
6438;SDS011;3252;52.540;13.290;2023-08-31T05:31:03;7.83;;;5.57;;
6438;SDS011;3252;52.540;13.290;2023-08-31T05:33:05;6.97;;;5.37;;
6438;SDS011;3252;52.540;13.290;2023-08-31T05:35:08;7.13;;;5.43;;
6438;SDS011;3252;52.540;13.290;2023-08-31T05:37:10;6.73;;;5.73;;
6438;SDS011;3252;52.540;13.290;2023-08-31T05:39:13;6.33;;;5.50;;
6438;SDS011;3252;52.540;13.290;2023-08-31T05:41:17;10.03;;;8.23;;
6438;SDS011;3252;52.540;13.290;2023-08-31T05:43:19;8.30;;;6.43;;
6438;SDS011;3252;52.540;13.290;2023-08-31T05:45:21;10.27;;;6.57;;
6438;SDS011;3252;52.540;13.290;2023-08-31T05:47:25;8.67;;;6.60;;
6438;SDS011;3252;52.540;13.290;2023-08-31T05:49:27;6.87;;;6.17;;
6438;SDS011;3252;52.540;13.290;2023-08-31T05:51:29;8.43;;;6.10;;
6438;SDS011;3252;52.540;13.290;2023-08-31T05:53:31;9.93;;;5.53;;
6438;SDS011;3252;52.540;13.290;2023-08-31T05:55:35;7.57;;;5.77;;
6438;SDS011;3252;52.540;13.290;2023-08-31T05:57:37;11.10;;;8.03;;
6438;SDS011;3252;52.540;13.290;2023-08-31T05:59:40;11.87;;;8.07;;
6438;SDS011;3252;52.540;13.290;2023-08-31T06:01:42;11.30;;;6.57;;
6438;SDS011;3252;52.540;13.290;2023-08-31T06:03:46;7.37;;;6.20;;
6438;SDS011;3252;52.540;13.290;2023-08-31T06:05:48;11.80;;;6.20;;
6438;SDS011;3252;52.540;13.290;2023-08-31T06:07:51;10.00;;;6.00;;
6438;SDS011;3252;52.540;13.290;2023-08-31T06:09:53;8.20;;;6.00;;
6438;SDS011;3252;52.540;13.290;2023-08-31T06:11:55;10.57;;;5.93;;
6438;SDS011;3252;52.540;13.290;2023-08-31T06:13:57;7.63;;;5.23;;
6438;SDS011;3252;52.540;13.290;2023-08-31T06:15:59;7.37;;;5.30;;
6438;SDS011;3252;52.540;13.290;2023-08-31T06:18:02;5.93;;;5.30;;
6438;SDS011;3252;52.540;13.290;2023-08-31T06:20:06;9.00;;;6.23;;
6438;SDS011;3252;52.540;13.290;2023-08-31T06:22:09;9.10;;;6.33;;
6438;SDS011;3252;52.540;13.290;2023-08-31T06:24:11;7.20;;;6.13;;
6438;SDS011;3252;52.540;13.290;2023-08-31T06:26:14;11.53;;;6.97;;
6438;SDS011;3252;52.540;13.290;2023-08-31T06:28:16;8.77;;;6.60;;
6438;SDS011;3252;52.540;13.290;2023-08-31T06:30:19;8.63;;;6.70;;
6438;SDS011;3252;52.540;13.290;2023-08-31T06:32:21;11.80;;;6.50;;
6438;SDS011;3252;52.540;13.290;2023-08-31T06:34:23;9.47;;;6.47;;
6438;SDS011;3252;52.540;13.290;2023-08-31T06:36:27;9.57;;;6.83;;
6438;SDS011;3252;52.540;13.290;2023-08-31T06:38:29;11.07;;;6.80;;
6438;SDS011;3252;52.540;13.290;2023-08-31T06:40:31;12.07;;;8.50;;
6438;SDS011;3252;52.540;13.290;2023-08-31T06:42:32;7.30;;;5.53;;
6438;SDS011;3252;52.540;13.290;2023-08-31T06:44:34;8.80;;;6.20;;
6438;SDS011;3252;52.540;13.290;2023-08-31T06:46:36;8.80;;;6.23;;
6438;SDS011;3252;52.540;13.290;2023-08-31T06:48:39;10.00;;;6.23;;
6438;SDS011;3252;52.540;13.290;2023-08-31T06:50:41;15.13;;;6.30;;
6438;SDS011;3252;52.540;13.290;2023-08-31T06:52:44;10.07;;;5.27;;
6438;SDS011;3252;52.540;13.290;2023-08-31T06:54:47;9.07;;;5.53;;
6438;SDS011;3252;52.540;13.290;2023-08-31T06:56:49;8.23;;;5.77;;
6438;SDS011;3252;52.540;13.290;2023-08-31T06:58:51;9.43;;;5.60;;
6438;SDS011;3252;52.540;13.290;2023-08-31T07:00:53;12.60;;;5.80;;
6438;SDS011;3252;52.540;13.290;2023-08-31T07:02:55;8.17;;;5.97;;
6438;SDS011;3252;52.540;13.290;2023-08-31T07:04:57;7.87;;;5.30;;
6438;SDS011;3252;52.540;13.290;2023-08-31T07:06:59;13.50;;;4.67;;
6438;SDS011;3252;52.540;13.290;2023-08-31T07:09:04;9.57;;;4.67;;
6438;SDS011;3252;52.540;13.290;2023-08-31T07:11:07;10.43;;;5.50;;
6438;SDS011;3252;52.540;13.290;2023-08-31T07:13:09;10.13;;;4.97;;
6438;SDS011;3252;52.540;13.290;2023-08-31T07:15:11;10.10;;;5.00;;
6438;SDS011;3252;52.540;13.290;2023-08-31T07:17:17;11.93;;;4.83;;
6438;SDS011;3252;52.540;13.290;2023-08-31T07:19:18;12.03;;;5.37;;
6438;SDS011;3252;52.540;13.290;2023-08-31T07:21:21;10.57;;;4.83;;
6438;SDS011;3252;52.540;13.290;2023-08-31T07:23:22;12.50;;;4.97;;
6438;SDS011;3252;52.540;13.290;2023-08-31T07:25:26;8.57;;;4.50;;
6438;SDS011;3252;52.540;13.290;2023-08-31T07:27:29;14.73;;;8.33;;
6438;SDS011;3252;52.540;13.290;2023-08-31T07:29:31;13.17;;;4.60;;
6438;SDS011;3252;52.540;13.290;2023-08-31T07:31:33;7.37;;;3.67;;
6438;SDS011;3252;52.540;13.290;2023-08-31T07:33:35;12.97;;;4.40;;
6438;SDS011;3252;52.540;13.290;2023-08-31T07:35:38;6.13;;;3.90;;
6438;SDS011;3252;52.540;13.290;2023-08-31T07:37:40;8.77;;;3.70;;
6438;SDS011;3252;52.540;13.290;2023-08-31T07:39:42;7.90;;;4.03;;
6438;SDS011;3252;52.540;13.290;2023-08-31T07:41:46;8.97;;;3.60;;
6438;SDS011;3252;52.540;13.290;2023-08-31T07:43:48;9.17;;;4.00;;
6438;SDS011;3252;52.540;13.290;2023-08-31T07:45:50;9.20;;;5.43;;
6438;SDS011;3252;52.540;13.290;2023-08-31T07:47:53;9.30;;;4.63;;
6438;SDS011;3252;52.540;13.290;2023-08-31T07:49:56;9.37;;;4.37;;
6438;SDS011;3252;52.540;13.290;2023-08-31T07:51:58;8.07;;;3.43;;
6438;SDS011;3252;52.540;13.290;2023-08-31T07:54:00;11.87;;;3.30;;
6438;SDS011;3252;52.540;13.290;2023-08-31T07:56:04;9.03;;;3.47;;
6438;SDS011;3252;52.540;13.290;2023-08-31T07:58:07;9.37;;;3.77;;
6438;SDS011;3252;52.540;13.290;2023-08-31T08:00:10;15.43;;;5.93;;
6438;SDS011;3252;52.540;13.290;2023-08-31T08:02:15;11.33;;;4.00;;
6438;SDS011;3252;52.540;13.290;2023-08-31T08:04:17;8.83;;;4.33;;
6438;SDS011;3252;52.540;13.290;2023-08-31T08:06:20;12.90;;;3.90;;
6438;SDS011;3252;52.540;13.290;2023-08-31T08:08:22;5.37;;;2.90;;
6438;SDS011;3252;52.540;13.290;2023-08-31T08:10:24;9.67;;;3.53;;
6438;SDS011;3252;52.540;13.290;2023-08-31T08:12:26;7.73;;;2.83;;
6438;SDS011;3252;52.540;13.290;2023-08-31T08:14:30;6.77;;;3.33;;
6438;SDS011;3252;52.540;13.290;2023-08-31T08:16:34;7.37;;;3.53;;
6438;SDS011;3252;52.540;13.290;2023-08-31T08:18:37;6.47;;;2.73;;
6438;SDS011;3252;52.540;13.290;2023-08-31T08:20:39;6.10;;;2.80;;
6438;SDS011;3252;52.540;13.290;2023-08-31T08:22:41;7.83;;;2.90;;
6438;SDS011;3252;52.540;13.290;2023-08-31T08:24:45;7.93;;;2.83;;
6438;SDS011;3252;52.540;13.290;2023-08-31T08:26:47;5.70;;;2.30;;
6438;SDS011;3252;52.540;13.290;2023-08-31T08:28:53;6.90;;;2.63;;
6438;SDS011;3252;52.540;13.290;2023-08-31T08:30:57;8.67;;;2.43;;
6438;SDS011;3252;52.540;13.290;2023-08-31T08:33:02;10.87;;;2.37;;
6438;SDS011;3252;52.540;13.290;2023-08-31T08:35:04;4.87;;;1.90;;
6438;SDS011;3252;52.540;13.290;2023-08-31T08:37:07;6.43;;;1.97;;
6438;SDS011;3252;52.540;13.290;2023-08-31T08:39:09;4.07;;;1.50;;
6438;SDS011;3252;52.540;13.290;2023-08-31T08:41:11;6.07;;;1.83;;
6438;SDS011;3252;52.540;13.290;2023-08-31T08:43:13;8.97;;;1.83;;
6438;SDS011;3252;52.540;13.290;2023-08-31T08:45:16;5.03;;;2.00;;
6438;SDS011;3252;52.540;13.290;2023-08-31T08:47:18;5.87;;;1.93;;
6438;SDS011;3252;52.540;13.290;2023-08-31T08:49:21;7.13;;;2.20;;
6438;SDS011;3252;52.540;13.290;2023-08-31T08:51:24;4.50;;;1.97;;
6438;SDS011;3252;52.540;13.290;2023-08-31T08:53:27;7.03;;;2.03;;
6438;SDS011;3252;52.540;13.290;2023-08-31T08:55:30;7.33;;;1.90;;
6438;SDS011;3252;52.540;13.290;2023-08-31T08:57:32;5.67;;;1.63;;
6438;SDS011;3252;52.540;13.290;2023-08-31T08:59:34;5.80;;;1.70;;
6438;SDS011;3252;52.540;13.290;2023-08-31T09:01:36;8.07;;;2.00;;
6438;SDS011;3252;52.540;13.290;2023-08-31T09:03:40;5.67;;;1.73;;
6438;SDS011;3252;52.540;13.290;2023-08-31T09:05:42;6.43;;;1.67;;
6438;SDS011;3252;52.540;13.290;2023-08-31T09:08:03;7.03;;;1.77;;
6438;SDS011;3252;52.540;13.290;2023-08-31T09:10:07;6.27;;;1.47;;
6438;SDS011;3252;52.540;13.290;2023-08-31T09:12:10;10.63;;;2.20;;
6438;SDS011;3252;52.540;13.290;2023-08-31T09:14:15;9.30;;;1.90;;
6438;SDS011;3252;52.540;13.290;2023-08-31T09:16:24;7.53;;;1.70;;
6438;SDS011;3252;52.540;13.290;2023-08-31T09:18:29;5.37;;;1.70;;
6438;SDS011;3252;52.540;13.290;2023-08-31T09:20:42;7.60;;;1.77;;
6438;SDS011;3252;52.540;13.290;2023-08-31T09:22:44;5.80;;;1.70;;
6438;SDS011;3252;52.540;13.290;2023-08-31T09:24:46;5.43;;;1.90;;
6438;SDS011;3252;52.540;13.290;2023-08-31T09:26:48;6.00;;;1.90;;
6438;SDS011;3252;52.540;13.290;2023-08-31T09:28:53;4.53;;;1.83;;
6438;SDS011;3252;52.540;13.290;2023-08-31T09:31:04;7.03;;;2.50;;
6438;SDS011;3252;52.540;13.290;2023-08-31T09:33:07;6.20;;;1.77;;
6438;SDS011;3252;52.540;13.290;2023-08-31T09:35:10;4.90;;;1.80;;
6438;SDS011;3252;52.540;13.290;2023-08-31T09:37:15;10.20;;;1.97;;
6438;SDS011;3252;52.540;13.290;2023-08-31T09:39:17;5.27;;;2.07;;
6438;SDS011;3252;52.540;13.290;2023-08-31T09:41:19;7.00;;;1.60;;
6438;SDS011;3252;52.540;13.290;2023-08-31T09:43:22;6.07;;;2.30;;
6438;SDS011;3252;52.540;13.290;2023-08-31T09:45:25;9.23;;;2.07;;
6438;SDS011;3252;52.540;13.290;2023-08-31T09:47:29;7.57;;;2.50;;
6438;SDS011;3252;52.540;13.290;2023-08-31T09:49:32;8.17;;;2.00;;
6438;SDS011;3252;52.540;13.290;2023-08-31T09:51:35;4.80;;;1.87;;
6438;SDS011;3252;52.540;13.290;2023-08-31T09:53:42;5.43;;;2.00;;
6438;SDS011;3252;52.540;13.290;2023-08-31T09:55:48;6.93;;;2.07;;
6438;SDS011;3252;52.540;13.290;2023-08-31T09:57:53;7.83;;;2.23;;
6438;SDS011;3252;52.540;13.290;2023-08-31T09:59:58;9.90;;;1.90;;
6438;SDS011;3252;52.540;13.290;2023-08-31T10:02:01;5.40;;;1.40;;
6438;SDS011;3252;52.540;13.290;2023-08-31T10:04:04;4.23;;;1.60;;
6438;SDS011;3252;52.540;13.290;2023-08-31T10:06:08;6.93;;;1.50;;
6438;SDS011;3252;52.540;13.290;2023-08-31T10:08:11;4.20;;;1.37;;
6438;SDS011;3252;52.540;13.290;2023-08-31T10:10:16;5.57;;;1.87;;
6438;SDS011;3252;52.540;13.290;2023-08-31T10:12:18;8.60;;;1.53;;
6438;SDS011;3252;52.540;13.290;2023-08-31T10:14:21;9.00;;;1.60;;
6438;SDS011;3252;52.540;13.290;2023-08-31T10:16:24;8.87;;;1.50;;
6438;SDS011;3252;52.540;13.290;2023-08-31T10:18:27;4.67;;;1.53;;
6438;SDS011;3252;52.540;13.290;2023-08-31T10:20:31;5.57;;;1.67;;
6438;SDS011;3252;52.540;13.290;2023-08-31T10:22:34;4.37;;;1.70;;
6438;SDS011;3252;52.540;13.290;2023-08-31T10:29:25;4.77;;;2.10;;
6438;SDS011;3252;52.540;13.290;2023-08-31T10:31:29;9.77;;;1.77;;
6438;SDS011;3252;52.540;13.290;2023-08-31T10:33:33;8.80;;;2.60;;
6438;SDS011;3252;52.540;13.290;2023-08-31T10:35:47;10.93;;;2.00;;
6438;SDS011;3252;52.540;13.290;2023-08-31T10:37:51;4.60;;;1.67;;
6438;SDS011;3252;52.540;13.290;2023-08-31T10:39:55;4.80;;;1.80;;
6438;SDS011;3252;52.540;13.290;2023-08-31T10:42:08;6.70;;;1.53;;
6438;SDS011;3252;52.540;13.290;2023-08-31T10:44:19;3.20;;;1.43;;
6438;SDS011;3252;52.540;13.290;2023-08-31T10:46:30;7.03;;;1.67;;
6438;SDS011;3252;52.540;13.290;2023-08-31T10:48:48;4.90;;;1.90;;
6438;SDS011;3252;52.540;13.290;2023-08-31T10:50:50;5.50;;;1.57;;
6438;SDS011;3252;52.540;13.290;2023-08-31T10:52:53;3.97;;;1.20;;
6438;SDS011;3252;52.540;13.290;2023-08-31T10:54:55;3.17;;;1.20;;
6438;SDS011;3252;52.540;13.290;2023-08-31T10:57:04;4.63;;;1.30;;
6438;SDS011;3252;52.540;13.290;2023-08-31T10:59:07;4.50;;;1.30;;
6438;SDS011;3252;52.540;13.290;2023-08-31T11:01:10;3.97;;;1.07;;
6438;SDS011;3252;52.540;13.290;2023-08-31T11:03:12;4.43;;;1.60;;
6438;SDS011;3252;52.540;13.290;2023-08-31T11:05:15;5.87;;;1.70;;
6438;SDS011;3252;52.540;13.290;2023-08-31T11:07:18;8.93;;;2.07;;
6438;SDS011;3252;52.540;13.290;2023-08-31T11:09:20;4.50;;;1.77;;
6438;SDS011;3252;52.540;13.290;2023-08-31T11:11:22;5.97;;;1.77;;
6438;SDS011;3252;52.540;13.290;2023-08-31T11:13:25;3.23;;;1.57;;
6438;SDS011;3252;52.540;13.290;2023-08-31T11:15:27;4.07;;;1.40;;
6438;SDS011;3252;52.540;13.290;2023-08-31T11:17:31;4.07;;;1.63;;
6438;SDS011;3252;52.540;13.290;2023-08-31T11:19:34;5.13;;;1.23;;
6438;SDS011;3252;52.540;13.290;2023-08-31T11:21:37;5.17;;;1.40;;
6438;SDS011;3252;52.540;13.290;2023-08-31T11:23:40;4.67;;;1.50;;
6438;SDS011;3252;52.540;13.290;2023-08-31T11:25:43;7.03;;;1.73;;
6438;SDS011;3252;52.540;13.290;2023-08-31T11:27:55;5.60;;;1.90;;
6438;SDS011;3252;52.540;13.290;2023-08-31T11:29:58;5.37;;;2.00;;
6438;SDS011;3252;52.540;13.290;2023-08-31T11:32:00;5.43;;;1.87;;
6438;SDS011;3252;52.540;13.290;2023-08-31T11:34:05;7.37;;;2.30;;
6438;SDS011;3252;52.540;13.290;2023-08-31T11:36:07;7.13;;;2.27;;
6438;SDS011;3252;52.540;13.290;2023-08-31T11:38:14;6.80;;;2.10;;
6438;SDS011;3252;52.540;13.290;2023-08-31T11:40:16;5.13;;;1.80;;
6438;SDS011;3252;52.540;13.290;2023-08-31T11:42:18;4.13;;;1.60;;
6438;SDS011;3252;52.540;13.290;2023-08-31T11:44:21;4.00;;;1.80;;
6438;SDS011;3252;52.540;13.290;2023-08-31T11:46:24;5.70;;;2.17;;
6438;SDS011;3252;52.540;13.290;2023-08-31T11:48:25;4.80;;;1.80;;
6438;SDS011;3252;52.540;13.290;2023-08-31T11:50:29;6.23;;;2.10;;
6438;SDS011;3252;52.540;13.290;2023-08-31T11:52:31;4.63;;;1.87;;
6438;SDS011;3252;52.540;13.290;2023-08-31T11:54:33;5.57;;;1.63;;
6438;SDS011;3252;52.540;13.290;2023-08-31T11:56:38;5.70;;;1.33;;
6438;SDS011;3252;52.540;13.290;2023-08-31T11:58:40;3.97;;;1.80;;
6438;SDS011;3252;52.540;13.290;2023-08-31T12:00:54;4.63;;;1.83;;
6438;SDS011;3252;52.540;13.290;2023-08-31T12:02:56;4.40;;;1.60;;
6438;SDS011;3252;52.540;13.290;2023-08-31T12:04:59;4.67;;;1.67;;
6438;SDS011;3252;52.540;13.290;2023-08-31T12:07:03;6.30;;;1.83;;
6438;SDS011;3252;52.540;13.290;2023-08-31T12:09:06;5.37;;;2.07;;
6438;SDS011;3252;52.540;13.290;2023-08-31T12:11:10;4.07;;;1.50;;
6438;SDS011;3252;52.540;13.290;2023-08-31T12:13:12;5.00;;;2.00;;
6438;SDS011;3252;52.540;13.290;2023-08-31T12:15:14;4.80;;;2.10;;
6438;SDS011;3252;52.540;13.290;2023-08-31T12:17:18;9.37;;;2.20;;
6438;SDS011;3252;52.540;13.290;2023-08-31T12:19:20;6.37;;;1.97;;
6438;SDS011;3252;52.540;13.290;2023-08-31T12:21:29;4.50;;;2.07;;
6438;SDS011;3252;52.540;13.290;2023-08-31T12:23:32;5.20;;;1.90;;
6438;SDS011;3252;52.540;13.290;2023-08-31T12:25:35;4.63;;;1.90;;
6438;SDS011;3252;52.540;13.290;2023-08-31T12:27:37;4.77;;;1.93;;
6438;SDS011;3252;52.540;13.290;2023-08-31T12:29:39;5.10;;;1.70;;
6438;SDS011;3252;52.540;13.290;2023-08-31T12:31:41;3.80;;;1.97;;
6438;SDS011;3252;52.540;13.290;2023-08-31T12:33:43;911.43;;;673.03;;
6438;SDS011;3252;52.540;13.290;2023-08-31T12:35:47;1565.13;;;900.20;;
6438;SDS011;3252;52.540;13.290;2023-08-31T12:37:48;744.63;;;513.50;;